createdAt,value
2023-04-26T00:02:42.775Z,12.39
2023-04-26T00:06:42.387Z,12.41
2023-04-26T00:09:49.936Z,12.43
2023-04-26T00:12:51.433Z,12.47
2023-04-26T00:15:41.074Z,12.52
2023-04-26T00:19:13.028Z,12.55
2023-04-26T00:21:52.291Z,12.58
2023-04-26T00:25:23.630Z,12.58
2023-04-26T00:28:19.907Z,12.59
2023-04-26T00:31:00.529Z,12.60
2023-04-26T00:34:17.790Z,12.65
2023-04-26T00:37:11.149Z,12.71
2023-04-26T00:40:20.000Z,12.72
2023-04-26T00:43:11.355Z,12.75
2023-04-26T00:50:19.221Z,12.76
2023-04-26T00:53:16.060Z,12.76
2023-04-26T00:56:28.173Z,12.76
2023-04-26T01:02:50.731Z,12.77
2023-04-26T01:05:37.663Z,12.77
2023-04-26T01:08:45.831Z,12.77
2023-04-26T01:11:27.031Z,12.78
2023-04-26T01:14:40.883Z,12.79
2023-04-26T01:17:39.533Z,12.82
2023-04-26T01:20:23.424Z,12.84
2023-04-26T01:23:02.377Z,12.86
2023-04-26T01:25:45.029Z,12.87
2023-04-26T01:28:23.819Z,12.87
2023-04-26T01:31:57.119Z,12.88
2023-04-26T01:35:44.380Z,12.82
2023-04-26T01:39:04.374Z,12.84
2023-04-26T01:42:33.626Z,12.82
2023-04-26T01:46:32.538Z,12.83
2023-04-26T01:49:13.892Z,12.88
2023-04-26T01:56:35.532Z,12.96
2023-04-26T01:59:29.958Z,12.94
2023-04-26T02:02:54.023Z,12.96
2023-04-26T02:05:30.918Z,12.96
2023-04-26T02:08:02.830Z,12.94
2023-04-26T02:11:18.241Z,12.98
2023-04-26T02:14:02.583Z,13.01
2023-04-26T02:16:42.132Z,13.03
2023-04-26T02:19:34.063Z,13.06
2023-04-26T02:22:14.398Z,13.08
2023-04-26T02:25:46.203Z,13.09
2023-04-26T02:28:43.632Z,13.04
2023-04-26T02:31:41.344Z,13.08
2023-04-26T02:34:23.746Z,13.06
2023-04-26T02:37:03.916Z,13.05
2023-04-26T02:40:20.588Z,13.04
2023-04-26T02:44:13.294Z,13.01
2023-04-26T02:48:08.523Z,12.97
2023-04-26T02:50:51.898Z,12.95
2023-04-26T02:54:05.727Z,12.91
2023-04-26T02:56:49.556Z,12.89
2023-04-26T03:03:45.509Z,12.83
2023-04-26T03:06:57.726Z,12.78
2023-04-26T03:10:53.273Z,12.78
2023-04-26T03:13:37.756Z,12.83
2023-04-26T03:17:35.163Z,12.90
2023-04-26T03:20:58.280Z,12.95
2023-04-26T03:27:55.753Z,12.99
2023-04-26T03:30:57.772Z,13.00
2023-04-26T03:33:47.006Z,13.00
2023-04-26T03:37:00.460Z,12.99
2023-04-26T03:40:17.085Z,13.04
2023-04-26T03:42:57.669Z,13.04
2023-04-26T03:45:53.239Z,13.04
2023-04-26T03:49:28.987Z,13.06
2023-04-26T03:52:21.673Z,13.07
2023-04-26T03:55:12.230Z,13.03
2023-04-26T03:57:53.556Z,13.04
2023-04-26T04:01:15.833Z,13.05
2023-04-26T04:04:47.530Z,12.96
2023-04-26T04:07:39.058Z,13.04
2023-04-26T04:11:04.664Z,12.99
2023-04-26T04:13:45.525Z,12.94
2023-04-26T04:16:43.676Z,12.95
2023-04-26T04:20:50.602Z,12.92
2023-04-26T04:23:40.368Z,13.04
2023-04-26T04:27:48.956Z,12.92
2023-04-26T04:46:34.800Z,13.56
2023-04-26T04:49:23.251Z,13.62
2023-04-26T04:53:22.256Z,13.66
2023-04-26T04:56:27.415Z,13.67
2023-04-26T05:03:57.460Z,13.70
2023-04-26T05:06:56.518Z,13.75
2023-04-26T05:10:24.825Z,13.83
2023-04-26T05:13:52.286Z,13.91
2023-04-26T05:16:46.887Z,14.03
2023-04-26T05:19:39.555Z,14.09
2023-04-26T05:22:24.708Z,14.16
2023-04-26T05:25:38.897Z,14.17
2023-04-26T05:30:14.869Z,14.30
2023-04-26T05:33:32.709Z,14.43
2023-04-26T05:37:11.373Z,14.51
2023-04-26T05:39:43.510Z,14.63
2023-04-26T05:42:12.564Z,14.73
2023-04-26T05:44:42.963Z,14.83
2023-04-26T05:47:11.828Z,14.92
2023-04-26T05:49:39.698Z,14.98
2023-04-26T05:52:36.597Z,14.99
2023-04-26T05:55:11.879Z,15.03
2023-04-26T05:57:42.672Z,15.06
2023-04-26T06:00:22.832Z,15.14
2023-04-26T06:02:54.028Z,15.24
2023-04-26T06:05:26.583Z,15.32
2023-04-26T06:07:55.625Z,15.36
2023-04-26T06:10:37.000Z,15.41
2023-04-26T06:13:12.252Z,15.45
2023-04-26T06:15:53.017Z,15.49
2023-04-26T06:18:59.222Z,15.54
2023-04-26T06:21:40.051Z,15.55
2023-04-26T06:24:12.092Z,15.56
2023-04-26T06:26:42.217Z,15.61
2023-04-26T06:29:11.790Z,15.68
2023-04-26T06:31:48.487Z,15.75
2023-04-26T06:34:45.132Z,15.83
2023-04-26T06:37:18.807Z,15.94
2023-04-26T06:39:56.326Z,16.05
2023-04-26T06:42:30.506Z,16.19
2023-04-26T06:45:41.477Z,16.36
2023-04-26T06:48:13.281Z,16.48
2023-04-26T06:50:44.680Z,16.59
2023-04-26T06:53:13.706Z,16.75
2023-04-26T06:55:48.062Z,16.90
2023-04-26T06:58:17.077Z,17.04
2023-04-26T07:00:46.481Z,17.17
2023-04-26T07:03:17.706Z,17.34
2023-04-26T07:05:46.511Z,17.52
2023-04-26T07:08:18.367Z,17.70
2023-04-26T07:10:47.325Z,17.89
2023-04-26T07:13:43.826Z,18.05
2023-04-26T07:21:39.593Z,18.27
2023-04-26T07:24:08.922Z,18.26
2023-04-26T07:26:37.501Z,18.21
2023-04-26T07:29:09.365Z,18.15
2023-04-26T07:31:41.243Z,18.10
2023-04-26T07:34:09.746Z,18.05
2023-04-26T07:36:37.403Z,18.02
2023-04-26T07:39:06.345Z,18.03
2023-04-26T07:41:34.040Z,18.02
2023-04-26T07:44:03.973Z,18.02
2023-04-26T07:46:39.851Z,18.05
2023-04-26T07:49:10.501Z,18.11
2023-04-26T07:51:45.406Z,18.18
2023-04-26T07:54:14.296Z,18.22
2023-04-26T07:56:42.181Z,18.23
2023-04-26T07:59:11.716Z,18.23
2023-04-26T08:01:40.780Z,18.19
2023-04-26T08:04:11.943Z,18.10
2023-04-26T08:06:44.630Z,18.01
2023-04-26T08:09:18.030Z,17.95
2023-04-26T08:11:47.358Z,17.95
2023-04-26T08:14:16.892Z,18.01
2023-04-26T08:16:49.454Z,18.10
2023-04-26T08:19:18.702Z,18.21
2023-04-26T08:21:48.658Z,18.26
2023-04-26T08:24:18.156Z,18.33
2023-04-26T08:26:48.768Z,18.41
2023-04-26T08:29:22.822Z,18.38
2023-04-26T08:31:52.500Z,18.54
2023-04-26T08:34:22.722Z,18.63
2023-04-26T08:36:55.269Z,18.72
2023-04-26T08:39:22.941Z,18.82
2023-04-26T08:41:55.533Z,18.83
2023-04-26T08:44:26.401Z,18.87
2023-04-26T08:47:36.662Z,18.87
2023-04-26T08:50:05.875Z,18.85
2023-04-26T08:52:34.866Z,18.92
2023-04-26T08:55:04.689Z,19.03
2023-04-26T08:57:34.047Z,19.18
2023-04-26T09:00:13.085Z,19.33
2023-04-26T09:02:43.081Z,19.48
2023-04-26T09:05:13.912Z,19.57
2023-04-26T09:07:49.312Z,19.70
2023-04-26T09:10:21.450Z,19.80
2023-04-26T09:12:53.797Z,19.88
2023-04-26T09:15:29.778Z,19.95
2023-04-26T09:17:58.701Z,20.00
2023-04-26T09:20:29.948Z,20.05
2023-04-26T09:23:09.519Z,20.15
2023-04-26T09:25:39.429Z,20.21
2023-04-26T09:28:22.709Z,20.18
2023-04-26T09:30:50.819Z,20.15
2023-04-26T09:33:19.417Z,20.21
2023-04-26T09:35:48.217Z,20.38
2023-04-26T09:38:17.134Z,20.59
2023-04-26T09:40:46.562Z,20.76
2023-04-26T09:43:22.438Z,20.86
2023-04-26T09:45:52.226Z,20.94
2023-04-26T09:48:30.290Z,21.03
2023-04-26T09:51:05.955Z,21.09
2023-04-26T09:53:51.949Z,21.10
2023-04-26T09:56:25.020Z,21.19
2023-04-26T09:59:03.029Z,21.29
2023-04-26T10:01:36.234Z,21.32
2023-04-26T10:04:13.273Z,21.24
2023-04-26T10:06:49.265Z,21.06
2023-04-26T10:09:18.010Z,21.04
2023-04-26T10:12:16.142Z,20.94
2023-04-26T10:14:46.162Z,20.76
2023-04-26T10:17:22.056Z,20.66
2023-04-26T10:19:56.192Z,20.55
2023-04-26T10:22:38.330Z,20.41
2023-04-26T10:25:12.606Z,20.22
2023-04-26T10:28:14.592Z,20.04
2023-04-26T10:31:51.843Z,19.88
2023-04-26T10:34:40.218Z,19.64
2023-04-26T10:49:00.150Z,18.57
2023-04-26T10:55:13.626Z,18.22
2023-04-26T10:57:53.564Z,18.31
2023-04-26T11:01:36.850Z,18.25
2023-04-26T11:04:30.280Z,18.36
2023-04-26T11:07:16.687Z,18.43
2023-04-26T11:10:32.510Z,18.56
2023-04-26T11:14:03.552Z,18.72
2023-04-26T11:16:50.502Z,18.90
2023-04-26T11:25:10.132Z,19.29
2023-04-26T11:28:05.464Z,19.49
2023-04-26T11:31:26.707Z,19.63
2023-04-26T11:34:12.468Z,19.83
2023-04-26T11:37:02.899Z,19.97
2023-04-26T11:40:00.140Z,20.13
2023-04-26T11:43:32.201Z,20.33
2023-04-26T11:46:48.991Z,20.52
2023-04-26T11:50:34.104Z,20.66
2023-04-26T11:53:50.783Z,20.67
2023-04-26T11:56:33.353Z,20.62
2023-04-26T11:59:34.879Z,20.60
2023-04-26T12:02:09.778Z,20.56
2023-04-26T12:05:16.165Z,20.51
2023-04-26T12:09:01.990Z,20.38
2023-04-26T12:11:33.499Z,20.13
2023-04-26T12:14:02.601Z,19.92
2023-04-26T12:16:32.435Z,19.77
2023-04-26T12:19:02.493Z,19.66
2023-04-26T12:21:55.826Z,19.55
2023-04-26T12:24:33.000Z,19.47
2023-04-26T12:27:24.650Z,19.40
2023-04-26T12:30:30.065Z,19.32
2023-04-26T12:33:17.463Z,19.18
2023-04-26T12:40:47.324Z,18.65
2023-04-26T12:44:07.893Z,18.46
2023-04-26T12:47:01.453Z,18.31
2023-04-26T12:49:45.074Z,18.23
2023-04-26T12:52:40.611Z,18.11
2023-04-26T12:59:52.429Z,17.60
2023-04-26T13:07:00.649Z,17.42
2023-04-26T13:09:49.622Z,17.44
2023-04-26T13:12:26.504Z,17.51
2023-04-26T13:15:49.543Z,17.61
2023-04-26T13:18:48.102Z,17.77
2023-04-26T13:22:14.164Z,17.92
2023-04-26T13:24:57.870Z,18.10
2023-04-26T13:28:22.740Z,18.21
2023-04-26T13:31:23.269Z,18.28
2023-04-26T13:47:29.485Z,18.34
2023-04-26T13:50:19.754Z,18.37
2023-04-26T13:53:11.194Z,18.38
2023-04-26T13:57:19.799Z,18.37
2023-04-26T13:59:48.190Z,18.34
2023-04-26T14:02:16.177Z,18.32
2023-04-26T14:04:49.850Z,18.36
2023-04-26T14:07:18.493Z,18.44
2023-04-26T14:09:48.537Z,18.56
2023-04-26T14:12:18.484Z,18.67
2023-04-26T14:14:48.029Z,18.81
2023-04-26T14:17:18.634Z,18.97
2023-04-26T14:19:46.604Z,19.21
2023-04-26T14:22:17.369Z,19.43
2023-04-26T14:24:47.587Z,19.55
2023-04-26T14:27:17.372Z,19.59
2023-04-26T14:29:48.409Z,19.57
2023-04-26T14:32:16.938Z,19.51
2023-04-26T14:34:46.019Z,19.45
2023-04-26T14:37:15.398Z,19.37
2023-04-26T14:40:12.012Z,19.32
2023-04-26T14:42:45.358Z,19.31
2023-04-26T14:45:14.124Z,19.31
2023-04-26T14:47:41.619Z,19.34
2023-04-26T14:50:11.410Z,19.39
2023-04-26T14:52:45.798Z,19.40
2023-04-26T14:55:18.733Z,19.38
2023-04-26T14:57:48.050Z,19.33
2023-04-26T15:00:19.948Z,19.28
2023-04-26T15:02:50.301Z,19.24
2023-04-26T15:05:20.312Z,19.15
2023-04-26T15:07:49.523Z,19.04
2023-04-26T15:10:19.788Z,18.96
2023-04-26T15:12:51.146Z,18.90
2023-04-26T15:15:22.612Z,18.85
2023-04-26T15:17:51.117Z,18.83
2023-04-26T15:35:17.597Z,19.88
2023-04-26T15:38:09.907Z,19.53
2023-04-26T15:41:09.801Z,19.29
2023-04-26T15:44:21.354Z,19.11
2023-04-26T15:47:16.314Z,18.96
2023-04-26T15:50:09.364Z,18.91
2023-04-26T15:57:02.756Z,18.71
2023-04-26T15:59:56.848Z,18.62
2023-04-26T16:07:52.264Z,18.40
2023-04-26T16:11:52.823Z,18.28
2023-04-26T16:18:21.695Z,18.11
2023-04-26T16:21:11.513Z,18.01
2023-04-26T16:24:52.893Z,17.99
2023-04-26T16:28:23.504Z,17.84
2023-04-26T16:31:22.280Z,17.69
2023-04-26T16:34:39.504Z,17.58
2023-04-26T16:37:58.759Z,17.50
2023-04-26T16:41:19.934Z,17.40
2023-04-26T16:44:49.404Z,17.33
2023-04-26T16:48:28.184Z,17.27
2023-04-26T16:51:31.696Z,17.17
2023-04-26T16:55:20.629Z,17.09
2023-04-26T17:07:30.066Z,16.75
2023-04-26T17:24:11.756Z,16.55
2023-04-26T17:45:39.082Z,16.19
2023-04-26T17:53:49.777Z,16.09
2023-04-26T17:56:30.681Z,16.08
2023-04-26T18:18:51.343Z,16.15
2023-04-26T18:28:36.429Z,16.16
2023-04-26T18:40:04.268Z,16.10
2023-04-26T18:47:55.465Z,16.04
2023-04-26T19:11:39.951Z,15.93
2023-04-26T20:30:37.156Z,15.49
2023-04-26T20:34:00.668Z,15.49
2023-04-26T20:38:03.327Z,15.43
2023-04-26T21:15:57.442Z,15.39
2023-04-26T21:19:10.888Z,15.33
2023-04-26T21:22:07.843Z,15.26
2023-04-26T21:26:12.302Z,15.19
2023-04-26T21:30:03.037Z,15.14
2023-04-26T21:33:27.496Z,15.07
2023-04-26T21:36:13.391Z,15.04
2023-04-26T21:39:14.316Z,15.00
2023-04-26T21:43:04.771Z,14.85
2023-04-26T21:46:03.613Z,14.93
2023-04-26T21:49:53.699Z,14.89
2023-04-26T22:01:21.033Z,14.76
2023-04-26T22:08:02.640Z,14.79
2023-04-26T22:10:58.982Z,14.78
2023-04-26T22:13:57.345Z,14.81
2023-04-26T22:17:01.196Z,14.82
2023-04-26T22:19:42.537Z,14.81
2023-04-26T22:22:56.991Z,14.79
2023-04-26T22:30:26.879Z,14.80
2023-04-26T22:33:49.605Z,14.79
2023-04-26T22:36:45.145Z,14.76
2023-04-26T22:39:51.678Z,14.74
2023-04-26T22:46:42.348Z,14.61
2023-04-26T22:50:11.529Z,14.53
2023-04-26T22:53:54.108Z,14.60
2023-04-26T23:05:16.248Z,14.60
2023-04-26T23:13:57.775Z,14.44
2023-04-26T23:16:32.818Z,14.68
2023-04-26T23:19:36.601Z,14.69
2023-04-26T23:22:17.051Z,14.73
2023-04-26T23:24:54.086Z,14.70
2023-04-26T23:27:58.018Z,14.70
2023-04-26T23:30:40.549Z,14.72
2023-04-26T23:33:34.474Z,14.75
2023-04-26T23:36:21.380Z,14.77
2023-04-26T23:39:01.645Z,14.69
2023-04-26T23:41:31.657Z,14.79
2023-04-26T23:44:05.496Z,14.79
2023-04-26T23:47:30.247Z,14.74
2023-04-26T23:50:12.329Z,14.73
2023-04-26T23:52:51.474Z,14.67
2023-04-26T23:56:24.541Z,14.59
2023-04-26T23:59:08.992Z,14.55
